Time;durP1;ratioP1;P1;durP2;ratioP2;P2;SDS_P1;SDS_P2;PMS_P1;PMS_P2;Temp;Humidity;BMP_temperature;BMP_pressure;BME280_temperature;BME280_humidity;BME280_pressure;Samples;Min_cycle;Max_cycle;Signal;HPM_P1;HPM_P2
2023/03/19 00:01:28;;;;;;;5.77;0.90;;;10.70;99.90;;;;;;5074062;28;20450;-81
2023/03/19 00:03:55;;;;;;;0.93;0.83;;;10.70;99.90;;;;;;5074024;28;20450;-81
2023/03/19 00:06:24;;;;;;;0.97;0.87;;;10.70;99.90;;;;;;5073795;28;20843;-82
2023/03/19 00:08:51;;;;;;;3.27;1.40;;;10.60;99.90;;;;;;5073640;28;20823;-82
2023/03/19 00:11:17;;;;;;;1.27;0.90;;;10.50;99.90;;;;;;5074035;28;20445;-82
2023/03/19 00:13:44;;;;;;;5.40;1.07;;;10.50;99.90;;;;;;5073950;28;20441;-83
2023/03/19 00:16:11;;;;;;;2.53;1.27;;;10.50;99.90;;;;;;5073869;28;20481;-82
2023/03/19 00:18:37;;;;;;;1.80;0.87;;;10.50;99.90;;;;;;5073824;28;20476;-83
2023/03/19 00:21:04;;;;;;;2.93;1.33;;;10.50;99.90;;;;;;5073536;28;20991;-82
2023/03/19 00:23:32;;;;;;;2.50;1.53;;;10.40;99.90;;;;;;5073798;28;20461;-83
2023/03/19 00:25:59;;;;;;;0.77;0.77;;;10.40;99.90;;;;;;5073781;28;20449;-83
2023/03/19 00:28:26;;;;;;;1.03;1.00;;;10.40;99.90;;;;;;5073942;28;20835;-83
2023/03/19 00:30:53;;;;;;;1.30;1.10;;;10.40;99.90;;;;;;5073656;28;20544;-83
2023/03/19 00:33:20;;;;;;;1.43;1.00;;;10.40;99.90;;;;;;5073359;28;20453;-83
2023/03/19 00:35:47;;;;;;;9.30;1.67;;;10.50;99.90;;;;;;5073363;28;20480;-82
2023/03/19 00:38:14;;;;;;;2.83;1.33;;;10.50;99.90;;;;;;5073316;28;20865;-82
2023/03/19 00:40:42;;;;;;;2.13;1.67;;;10.50;99.90;;;;;;5073623;28;20445;-83
2023/03/19 00:43:09;;;;;;;2.00;1.00;;;10.50;99.90;;;;;;5073271;28;20479;-83
2023/03/19 00:45:35;;;;;;;2.07;1.30;;;10.50;99.90;;;;;;5073284;28;20450;-83
2023/03/19 00:48:02;;;;;;;2.90;1.20;;;10.50;99.90;;;;;;5073438;28;20462;-82
2023/03/19 00:50:29;;;;;;;0.70;0.70;;;10.50;99.90;;;;;;5072618;28;20483;-82
2023/03/19 00:52:55;;;;;;;0.70;0.70;;;10.50;99.90;;;;;;5073609;28;20454;-82
2023/03/19 00:55:24;;;;;;;1.03;1.00;;;10.50;99.90;;;;;;5073033;28;20984;-82
2023/03/19 00:57:52;;;;;;;0.80;0.80;;;10.50;99.90;;;;;;5073861;28;20438;-82
2023/03/19 01:00:19;;;;;;;0.87;0.63;;;10.50;99.90;;;;;;5073364;28;20460;-82
2023/03/19 01:02:46;;;;;;;1.27;1.03;;;10.60;99.90;;;;;;5073043;28;20453;-82
2023/03/19 01:05:13;;;;;;;0.80;0.60;;;10.60;99.90;;;;;;5073035;28;20563;-82
2023/03/19 01:07:39;;;;;;;8.60;1.43;;;10.70;99.90;;;;;;5073140;28;20812;-82
2023/03/19 01:10:07;;;;;;;0.70;0.70;;;10.80;99.90;;;;;;5073141;28;20454;-82
2023/03/19 01:12:34;;;;;;;1.33;0.60;;;10.80;99.90;;;;;;5073211;28;20454;-83
2023/03/19 01:15:03;;;;;;;1.67;0.80;;;10.80;99.90;;;;;;5072944;28;20421;-83
2023/03/19 01:17:30;;;;;;;0.90;0.70;;;10.80;99.90;;;;;;5073197;28;20457;-83
2023/03/19 01:19:56;;;;;;;0.70;0.70;;;10.90;99.90;;;;;;5072878;28;20453;-83
2023/03/19 01:22:23;;;;;;;0.47;0.47;;;10.90;99.90;;;;;;5072937;28;20430;-83
2023/03/19 01:24:50;;;;;;;3.60;0.80;;;10.80;99.90;;;;;;5072869;28;20434;-83
2023/03/19 01:27:16;;;;;;;0.80;0.80;;;10.80;99.90;;;;;;5073112;28;20464;-83
2023/03/19 01:29:43;;;;;;;0.60;0.60;;;10.80;99.90;;;;;;5073851;28;20461;-82
2023/03/19 01:32:11;;;;;;;1.20;0.77;;;10.80;99.90;;;;;;5073840;28;20441;-83
2023/03/19 01:34:38;;;;;;;3.27;0.90;;;10.70;99.90;;;;;;5074093;28;20445;-83
2023/03/19 01:37:05;;;;;;;1.13;0.60;;;10.70;99.90;;;;;;5073737;28;20485;-80
2023/03/19 01:39:32;;;;;;;1.57;1.47;;;10.60;99.90;;;;;;5072592;28;20472;-81
2023/03/19 01:42:02;;;;;;;2.93;1.77;;;10.60;99.90;;;;;;5072943;28;20440;-81
2023/03/19 01:44:30;;;;;;;0.53;0.50;;;10.50;99.90;;;;;;5072949;28;20454;-81
2023/03/19 01:46:58;;;;;;;2.33;0.90;;;10.40;99.90;;;;;;5072529;28;20480;-81
2023/03/19 01:49:28;;;;;;;0.57;0.53;;;10.20;99.90;;;;;;5072826;28;20462;-81
2023/03/19 01:51:57;;;;;;;1.93;0.70;;;10.10;99.90;;;;;;5072866;28;20440;-81
2023/03/19 01:54:25;;;;;;;0.50;0.50;;;10.00;99.90;;;;;;5072835;28;20449;-81
2023/03/19 01:56:58;;;;;;;1.67;1.00;;;9.90;99.90;;;;;;5072703;28;20481;-79
2023/03/19 01:59:28;;;;;;;2.50;1.50;;;9.90;99.90;;;;;;5072737;28;20496;-79
2023/03/19 02:01:57;;;;;;;0.70;0.63;;;9.80;99.90;;;;;;5073387;28;20448;-80
2023/03/19 02:04:28;;;;;;;0.73;0.57;;;9.80;99.90;;;;;;5076132;28;20941;-81
2023/03/19 02:06:56;;;;;;;2.37;0.90;;;9.70;99.90;;;;;;5076357;28;20441;-81
2023/03/19 02:09:25;;;;;;;1.77;0.80;;;9.60;99.90;;;;;;5076011;28;20530;-82
2023/03/19 02:11:53;;;;;;;0.87;0.87;;;9.50;99.90;;;;;;5076018;28;20956;-82
2023/03/19 02:14:20;;;;;;;0.63;0.63;;;9.40;99.90;;;;;;5075969;28;20944;-82
2023/03/19 02:16:47;;;;;;;0.93;0.70;;;9.40;99.90;;;;;;5076136;28;20530;-82
2023/03/19 02:19:18;;;;;;;2.20;0.70;;;9.30;99.90;;;;;;5076408;28;20822;-82
2023/03/19 02:21:46;;;;;;;0.67;0.67;;;9.30;99.90;;;;;;5076604;28;20449;-82
2023/03/19 02:24:16;;;;;;;0.77;0.77;;;9.40;99.90;;;;;;5076078;28;20448;-82
2023/03/19 02:26:45;;;;;;;1.10;0.77;;;9.40;99.90;;;;;;5076041;28;20430;-82
2023/03/19 02:29:13;;;;;;;0.60;0.60;;;9.40;99.90;;;;;;5075928;28;20476;-82
2023/03/19 02:31:39;;;;;;;0.50;0.50;;;9.40;99.90;;;;;;5075975;28;20498;-81
2023/03/19 02:34:27;;;;;;;0.80;0.77;;;9.40;99.90;;;;;;5075923;28;20474;-82
2023/03/19 02:36:59;;;;;;;0.70;0.67;;;9.40;99.90;;;;;;5075533;28;20473;-82
2023/03/19 02:39:32;;;;;;;0.90;0.70;;;9.40;99.90;;;;;;5075791;28;20477;-82
2023/03/19 02:42:00;;;;;;;0.70;0.50;;;9.30;99.90;;;;;;5075830;28;20441;-82
2023/03/19 02:44:27;;;;;;;0.83;0.60;;;9.30;99.90;;;;;;5075899;28;20480;-82
2023/03/19 02:46:54;;;;;;;1.47;1.20;;;9.30;99.90;;;;;;5075297;28;20504;-82
2023/03/19 02:49:21;;;;;;;0.50;0.50;;;9.20;99.90;;;;;;5075507;28;20884;-82
2023/03/19 02:51:47;;;;;;;1.17;0.80;;;9.20;99.90;;;;;;5075608;28;20449;-82
2023/03/19 02:54:16;;;;;;;0.57;0.57;;;9.20;99.90;;;;;;5075540;28;20457;-82
2023/03/19 02:56:42;;;;;;;1.57;0.60;;;9.20;99.90;;;;;;5075412;28;20481;-81
2023/03/19 02:59:09;;;;;;;1.20;0.67;;;9.10;99.90;;;;;;5075111;28;20981;-81
2023/03/19 03:01:36;;;;;;;0.93;0.93;;;9.10;99.90;;;;;;5075377;28;20453;-82
2023/03/19 03:04:03;;;;;;;0.50;0.50;;;9.20;99.90;;;;;;5075400;28;20793;-82
2023/03/19 03:06:31;;;;;;;0.67;0.67;;;9.20;99.90;;;;;;5075004;28;20476;-81
2023/03/19 03:08:57;;;;;;;0.60;0.60;;;9.20;99.90;;;;;;5075214;28;20469;-82
2023/03/19 03:11:25;;;;;;;0.47;0.47;;;9.30;99.90;;;;;;5075036;28;20437;-82
2023/03/19 03:13:52;;;;;;;0.73;0.73;;;9.30;99.90;;;;;;5074624;28;20449;-82
2023/03/19 03:16:19;;;;;;;2.00;1.90;;;9.30;99.90;;;;;;5074845;28;20887;-81
2023/03/19 03:18:46;;;;;;;0.63;0.60;;;9.30;99.90;;;;;;5075190;28;20481;-82
2023/03/19 03:21:12;;;;;;;16.57;1.30;;;9.30;99.90;;;;;;5074758;28;20449;-81
2023/03/19 03:23:39;;;;;;;0.43;0.43;;;9.30;99.90;;;;;;5074995;28;20449;-82
2023/03/19 03:26:07;;;;;;;0.43;0.43;;;9.30;99.90;;;;;;5074945;28;20449;-81
2023/03/19 03:28:35;;;;;;;1.10;0.57;;;9.30;99.90;;;;;;5074741;28;20830;-81
2023/03/19 03:31:02;;;;;;;0.50;0.50;;;9.40;99.90;;;;;;5074855;28;20862;-82
2023/03/19 03:33:29;;;;;;;3.57;1.73;;;9.30;99.90;;;;;;5074754;28;20556;-81
2023/03/19 03:35:56;;;;;;;0.60;0.50;;;9.40;99.90;;;;;;5074674;28;20477;-82
2023/03/19 03:38:23;;;;;;;2.20;0.90;;;9.40;99.90;;;;;;5074581;28;20473;-81
2023/03/19 03:40:51;;;;;;;0.60;0.60;;;9.40;99.90;;;;;;5074649;28;20481;-81
2023/03/19 03:43:18;;;;;;;1.33;0.63;;;9.40;99.90;;;;;;5074606;28;20544;-82
2023/03/19 03:45:47;;;;;;;1.67;1.10;;;9.50;99.90;;;;;;5074302;28;20485;-82
2023/03/19 03:48:14;;;;;;;0.40;0.40;;;9.50;99.90;;;;;;5074445;28;20603;-81
2023/03/19 03:50:41;;;;;;;0.40;0.40;;;9.50;99.90;;;;;;5074684;28;20476;-81
2023/03/19 03:53:08;;;;;;;2.03;0.80;;;9.50;99.90;;;;;;5074352;28;20450;-81
2023/03/19 03:55:36;;;;;;;1.17;0.80;;;9.50;99.90;;;;;;5074326;28;20473;-81
2023/03/19 03:58:02;;;;;;;0.50;0.50;;;9.60;99.90;;;;;;5073919;28;20845;-81
2023/03/19 04:00:29;;;;;;;1.27;1.03;;;9.60;99.90;;;;;;5074271;28;20445;-82
2023/03/19 04:02:58;;;;;;;0.97;0.93;;;9.60;99.90;;;;;;5073869;28;20937;-82
2023/03/19 04:05:25;;;;;;;0.87;0.60;;;9.60;99.90;;;;;;5073824;28;20851;-81
2023/03/19 04:07:52;;;;;;;0.60;0.60;;;9.60;99.90;;;;;;5073679;28;20441;-81
2023/03/19 04:10:19;;;;;;;0.60;0.60;;;9.60;99.90;;;;;;5073773;28;20976;-81
2023/03/19 04:12:46;;;;;;;0.80;0.80;;;9.70;99.90;;;;;;5073998;28;20457;-82
2023/03/19 04:15:13;;;;;;;1.03;0.73;;;9.60;99.90;;;;;;5073989;28;20857;-81
2023/03/19 04:17:40;;;;;;;0.63;0.63;;;9.70;99.90;;;;;;5073845;28;20572;-82
2023/03/19 04:20:11;;;;;;;0.80;0.80;;;9.70;99.90;;;;;;5073857;28;20472;-80
2023/03/19 04:22:38;;;;;;;1.43;0.80;;;9.70;99.90;;;;;;5073854;28;20434;-82
2023/03/19 04:25:07;;;;;;;0.53;0.50;;;9.70;99.90;;;;;;5073078;28;20960;-81
2023/03/19 04:27:33;;;;;;;4.10;0.70;;;9.70;99.90;;;;;;5073386;28;20473;-81
2023/03/19 04:30:00;;;;;;;0.87;0.60;;;9.70;99.90;;;;;;5073402;28;20464;-82
2023/03/19 04:32:27;;;;;;;0.57;0.53;;;9.60;99.90;;;;;;5073704;28;20449;-81
2023/03/19 04:34:53;;;;;;;1.70;1.03;;;9.60;99.90;;;;;;5073359;28;20457;-82
2023/03/19 04:37:21;;;;;;;0.50;0.50;;;9.60;99.90;;;;;;5073529;28;20486;-81
2023/03/19 04:39:48;;;;;;;0.60;0.60;;;9.60;99.90;;;;;;5073511;28;20476;-81
2023/03/19 04:42:15;;;;;;;0.73;0.73;;;9.60;99.90;;;;;;5073276;28;20914;-81
2023/03/19 04:44:42;;;;;;;0.83;0.50;;;9.60;99.90;;;;;;5073544;28;20815;-81
2023/03/19 04:47:10;;;;;;;2.50;0.63;;;9.70;99.90;;;;;;5073107;28;20500;-81
2023/03/19 04:49:37;;;;;;;0.80;0.60;;;9.60;99.90;;;;;;5073402;28;20504;-81
2023/03/19 04:52:04;;;;;;;1.60;0.60;;;9.60;99.90;;;;;;5073075;28;20827;-81
2023/03/19 04:54:33;;;;;;;3.23;0.83;;;9.60;99.90;;;;;;5073285;28;20482;-81
2023/03/19 04:56:59;;;;;;;3.70;0.73;;;9.60;99.90;;;;;;5073334;28;20481;-81
2023/03/19 04:59:26;;;;;;;1.03;1.00;;;9.70;99.90;;;;;;5073218;28;20849;-82
2023/03/19 05:01:53;;;;;;;0.57;0.57;;;9.60;99.90;;;;;;5073080;28;20438;-81
2023/03/19 05:04:20;;;;;;;0.83;0.73;;;9.60;99.90;;;;;;5073321;28;20453;-81
2023/03/19 05:06:46;;;;;;;1.10;1.10;;;9.50;99.90;;;;;;5073012;28;20503;-80
2023/03/19 05:09:13;;;;;;;0.70;0.70;;;9.40;99.90;;;;;;5073172;28;20492;-81
2023/03/19 05:11:41;;;;;;;1.00;0.67;;;9.40;99.90;;;;;;5073422;28;20457;-88
2023/03/19 05:14:08;;;;;;;0.73;0.73;;;9.40;99.90;;;;;;5073904;28;20450;-88
2023/03/19 05:16:35;;;;;;;1.00;0.60;;;9.40;99.90;;;;;;5073329;28;20484;-88
2023/03/19 05:19:01;;;;;;;2.20;0.60;;;9.40;99.90;;;;;;5073643;28;20565;-88
2023/03/19 05:21:28;;;;;;;0.90;0.73;;;9.40;99.90;;;;;;5073693;28;20445;-88
2023/03/19 05:23:56;;;;;;;2.20;0.80;;;9.40;99.90;;;;;;5073684;28;20449;-88
2023/03/19 05:26:22;;;;;;;1.17;0.60;;;9.40;99.90;;;;;;5073594;28;20441;-88
2023/03/19 05:28:50;;;;;;;1.23;0.70;;;9.40;99.90;;;;;;5073663;28;20462;-87
2023/03/19 05:31:17;;;;;;;0.60;0.60;;;9.50;99.90;;;;;;5073587;28;20450;-88
2023/03/19 05:33:44;;;;;;;1.33;0.63;;;9.50;99.90;;;;;;5073390;28;20967;-87
2023/03/19 05:36:11;;;;;;;0.87;0.60;;;9.50;99.90;;;;;;5073429;28;20457;-87
2023/03/19 05:38:38;;;;;;;1.70;0.90;;;9.50;99.90;;;;;;5076258;28;20965;-86
2023/03/19 05:41:05;;;;;;;2.43;0.60;;;9.40;99.90;;;;;;5077187;28;20445;-86
2023/03/19 05:43:32;;;;;;;2.20;0.50;;;9.30;99.90;;;;;;5077227;28;20449;-86
2023/03/19 05:46:00;;;;;;;1.20;0.77;;;9.30;99.90;;;;;;5076838;28;20478;-87
2023/03/19 05:48:27;;;;;;;0.90;0.90;;;9.20;99.90;;;;;;5076992;28;20469;-87
2023/03/19 05:50:55;;;;;;;0.50;0.50;;;9.20;99.90;;;;;;5077063;28;20452;-87
2023/03/19 05:53:22;;;;;;;1.43;1.17;;;9.20;99.90;;;;;;5077091;28;20489;-87
2023/03/19 05:55:49;;;;;;;0.60;0.60;;;9.10;99.90;;;;;;5077015;28;20443;-87
2023/03/19 05:58:16;;;;;;;1.23;0.63;;;9.10;99.90;;;;;;5076932;28;20920;-87
2023/03/19 06:00:43;;;;;;;0.90;0.60;;;9.10;99.90;;;;;;5077013;28;20886;-87
2023/03/19 06:03:11;;;;;;;0.50;0.50;;;9.10;99.90;;;;;;5076819;28;20445;-87
2023/03/19 06:05:38;;;;;;;0.60;0.60;;;9.10;99.90;;;;;;5076824;28;20450;-87
2023/03/19 06:08:05;;;;;;;1.60;0.90;;;9.10;99.90;;;;;;5076834;28;20468;-87
2023/03/19 06:10:33;;;;;;;0.50;0.50;;;9.10;99.90;;;;;;5076821;28;20462;-87
2023/03/19 06:13:00;;;;;;;0.70;0.50;;;9.20;99.90;;;;;;5076807;28;20445;-87
2023/03/19 06:15:27;;;;;;;0.80;0.70;;;9.20;99.90;;;;;;5076789;28;20445;-87
2023/03/19 06:17:53;;;;;;;0.57;0.57;;;9.20;99.90;;;;;;5077013;28;20484;-87
2023/03/19 06:20:21;;;;;;;1.00;0.70;;;9.30;99.90;;;;;;5076572;28;20444;-87
2023/03/19 06:22:48;;;;;;;1.33;0.60;;;9.30;99.90;;;;;;5076628;28;20445;-88
2023/03/19 06:25:15;;;;;;;1.60;0.60;;;9.40;99.90;;;;;;5076549;28;20448;-87
2023/03/19 06:27:42;;;;;;;0.90;0.83;;;9.50;99.90;;;;;;5076412;28;20453;-88
2023/03/19 06:30:11;;;;;;;0.63;0.47;;;9.50;99.90;;;;;;5076712;28;20453;-87
2023/03/19 06:32:37;;;;;;;1.10;0.70;;;9.50;99.90;;;;;;5076971;28;20450;-88
2023/03/19 06:35:05;;;;;;;0.50;0.50;;;9.60;99.90;;;;;;5076304;28;20433;-88
2023/03/19 06:37:33;;;;;;;0.50;0.50;;;9.60;99.90;;;;;;5076518;28;20476;-88
2023/03/19 06:40:00;;;;;;;0.60;0.60;;;9.60;99.90;;;;;;5076491;28;20461;-87
2023/03/19 06:42:26;;;;;;;1.17;0.90;;;9.70;99.90;;;;;;5076256;28;20440;-88
2023/03/19 06:44:53;;;;;;;0.97;0.60;;;9.70;99.90;;;;;;5076254;28;20952;-88
2023/03/19 06:47:20;;;;;;;1.47;0.70;;;9.80;99.90;;;;;;5076111;28;20526;-88
2023/03/19 06:49:46;;;;;;;0.60;0.50;;;9.70;99.90;;;;;;5075184;28;20519;-88
2023/03/19 06:52:13;;;;;;;0.80;0.80;;;9.80;99.90;;;;;;5076454;28;20938;-88
2023/03/19 06:54:41;;;;;;;0.93;0.60;;;9.80;99.90;;;;;;5075993;28;20433;-87
2023/03/19 06:57:08;;;;;;;1.17;0.87;;;9.80;99.90;;;;;;5076585;28;20473;-87
2023/03/19 06:59:35;;;;;;;0.53;0.53;;;9.80;99.90;;;;;;5075825;28;20464;-88
2023/03/19 07:02:02;;;;;;;0.73;0.60;;;9.90;99.90;;;;;;5076055;28;20453;-88
2023/03/19 07:04:28;;;;;;;1.23;1.03;;;9.90;99.90;;;;;;5075980;28;20470;-88
2023/03/19 07:06:55;;;;;;;0.50;0.50;;;9.90;99.90;;;;;;5076233;28;20458;-88
2023/03/19 07:09:22;;;;;;;0.70;0.50;;;10.00;99.90;;;;;;5075952;28;20530;-88
2023/03/19 07:11:50;;;;;;;0.70;0.70;;;10.00;99.90;;;;;;5075912;28;20488;-88
2023/03/19 07:14:17;;;;;;;3.50;0.80;;;10.10;99.90;;;;;;5075877;28;20457;-88
2023/03/19 07:16:43;;;;;;;0.67;0.67;;;10.10;99.90;;;;;;5075763;28;20446;-88
2023/03/19 07:19:10;;;;;;;0.40;0.40;;;10.20;99.90;;;;;;5075668;28;20461;-88
2023/03/19 07:21:37;;;;;;;0.60;0.57;;;10.20;99.90;;;;;;5075664;28;20918;-88
2023/03/19 07:24:04;;;;;;;5.00;0.60;;;10.30;99.90;;;;;;5075476;28;20445;-86
2023/03/19 07:26:31;;;;;;;1.17;0.90;;;10.40;99.90;;;;;;5075248;28;21008;-87
2023/03/19 07:28:59;;;;;;;0.80;0.60;;;10.40;99.90;;;;;;5075407;28;20462;-88
2023/03/19 07:31:26;;;;;;;0.50;0.50;;;10.50;99.90;;;;;;5075233;28;20461;-87
2023/03/19 07:33:53;;;;;;;0.97;0.57;;;10.60;99.90;;;;;;5075257;28;20522;-88
2023/03/19 07:36:20;;;;;;;0.40;0.40;;;10.70;99.90;;;;;;5075423;28;20465;-87
2023/03/19 07:38:47;;;;;;;0.40;0.40;;;10.80;99.90;;;;;;5074726;28;20473;-88
2023/03/19 07:41:14;;;;;;;0.40;0.30;;;10.90;99.90;;;;;;5075255;28;20438;-88
2023/03/19 07:43:41;;;;;;;1.63;0.70;;;11.00;99.90;;;;;;5074803;28;20449;-82
2023/03/19 07:46:09;;;;;;;0.60;0.50;;;11.20;99.90;;;;;;5074787;28;20485;-82
2023/03/19 07:48:36;;;;;;;0.70;0.70;;;11.40;99.90;;;;;;5074468;28;20470;-81
2023/03/19 07:51:02;;;;;;;1.40;0.57;;;11.40;99.90;;;;;;5074256;28;20465;-82
2023/03/19 07:53:29;;;;;;;2.63;0.50;;;11.50;99.90;;;;;;5074496;28;20446;-81
2023/03/19 07:55:56;;;;;;;0.80;0.50;;;11.60;99.90;;;;;;5074335;28;20533;-81
2023/03/19 07:58:23;;;;;;;1.37;0.47;;;11.60;99.90;;;;;;5074172;28;20489;-81
2023/03/19 08:00:49;;;;;;;0.57;0.57;;;11.70;99.90;;;;;;5073828;28;20438;-80
2023/03/19 08:03:17;;;;;;;0.50;0.43;;;11.80;99.90;;;;;;5074336;28;20449;-81
2023/03/19 08:05:44;;;;;;;0.90;0.50;;;11.90;99.90;;;;;;5074203;28;20948;-82
2023/03/19 08:08:11;;;;;;;0.50;0.50;;;11.90;99.90;;;;;;5073872;28;20458;-82
2023/03/19 08:10:38;;;;;;;0.77;0.77;;;12.00;99.90;;;;;;5074213;28;20445;-82
2023/03/19 08:13:05;;;;;;;0.70;0.70;;;12.10;99.90;;;;;;5074074;28;20474;-82
2023/03/19 08:15:32;;;;;;;1.07;0.83;;;12.10;99.90;;;;;;5073710;28;20460;-82
2023/03/19 08:17:59;;;;;;;0.50;0.50;;;12.10;99.90;;;;;;5073862;28;20494;-82
2023/03/19 08:20:27;;;;;;;0.80;0.47;;;12.20;99.90;;;;;;5073784;28;20451;-82
2023/03/19 08:22:55;;;;;;;0.70;0.70;;;12.30;99.90;;;;;;5073586;28;20971;-82
2023/03/19 08:25:22;;;;;;;1.60;0.73;;;12.40;99.90;;;;;;5073752;28;20823;-82
2023/03/19 08:27:48;;;;;;;0.50;0.50;;;12.60;99.90;;;;;;5073739;28;20445;-82
2023/03/19 08:30:16;;;;;;;0.80;0.80;;;12.80;99.90;;;;;;5073486;28;20945;-82
2023/03/19 08:32:43;;;;;;;0.60;0.40;;;13.20;99.90;;;;;;5073960;28;20433;-82
2023/03/19 08:35:11;;;;;;;2.07;0.60;;;13.50;99.90;;;;;;5073372;28;20481;-82
2023/03/19 08:37:39;;;;;;;0.50;0.50;;;13.70;99.90;;;;;;5073315;28;20477;-82
2023/03/19 08:40:07;;;;;;;1.23;0.60;;;13.90;99.90;;;;;;5073654;28;20462;-82
2023/03/19 08:42:34;;;;;;;1.27;0.90;;;14.20;99.90;;;;;;5073619;28;20453;-81
2023/03/19 08:45:00;;;;;;;0.60;0.40;;;14.40;99.90;;;;;;5073567;28;20542;-82
2023/03/19 08:47:27;;;;;;;1.80;0.60;;;14.60;99.90;;;;;;5073096;28;21053;-82
2023/03/19 08:49:54;;;;;;;0.70;0.70;;;14.80;99.90;;;;;;5073416;28;20524;-83
2023/03/19 08:52:21;;;;;;;1.97;0.90;;;14.90;99.90;;;;;;5073417;28;20529;-82
2023/03/19 08:54:49;;;;;;;0.50;0.47;;;15.00;99.90;;;;;;5073287;28;20524;-83
2023/03/19 08:57:16;;;;;;;0.70;0.50;;;15.10;99.90;;;;;;5073059;28;20453;-83
2023/03/19 08:59:43;;;;;;;0.50;0.50;;;15.10;99.90;;;;;;5073030;28;20477;-83
2023/03/19 09:02:10;;;;;;;0.40;0.40;;;15.10;99.90;;;;;;5073406;28;20507;-83
2023/03/19 09:04:40;;;;;;;4.33;0.60;;;15.10;99.90;;;;;;5073290;28;20462;-83
2023/03/19 09:07:06;;;;;;;0.60;0.57;;;15.00;99.90;;;;;;5073017;28;20995;-83
2023/03/19 09:09:33;;;;;;;1.53;0.60;;;14.90;99.90;;;;;;5073224;28;20543;-83
2023/03/19 09:12:01;;;;;;;1.27;0.77;;;14.80;99.90;;;;;;5072706;28;20438;-83
2023/03/19 09:14:28;;;;;;;0.80;0.70;;;14.90;99.90;;;;;;5073267;28;20433;-83
2023/03/19 09:16:54;;;;;;;1.40;0.60;;;14.90;99.90;;;;;;5072934;28;20445;-83
2023/03/19 09:19:22;;;;;;;1.13;0.63;;;15.00;99.90;;;;;;5072834;28;20485;-83
2023/03/19 09:21:49;;;;;;;0.70;0.70;;;15.10;99.90;;;;;;5072881;28;20460;-83
2023/03/19 09:24:16;;;;;;;1.10;0.80;;;15.40;99.90;;;;;;5072975;28;20450;-83
2023/03/19 09:26:42;;;;;;;0.70;0.63;;;16.00;99.90;;;;;;5073142;28;20452;-83
2023/03/19 09:29:10;;;;;;;0.50;0.50;;;17.00;99.90;;;;;;5073125;28;20477;-83
2023/03/19 09:31:38;;;;;;;0.53;0.50;;;18.90;99.90;;;;;;5072857;28;20922;-83
2023/03/19 09:34:05;;;;;;;1.37;0.50;;;20.70;99.90;;;;;;5073097;28;20457;-82
2023/03/19 09:36:32;;;;;;;0.70;0.70;;;21.70;98.90;;;;;;5073068;28;20455;-82
2023/03/19 09:38:59;;;;;;;0.97;0.67;;;22.10;92.90;;;;;;5072910;28;20488;-83
2023/03/19 09:41:33;;;;;;;0.87;0.77;;;22.60;90.20;;;;;;5072815;28;20780;-83
2023/03/19 09:44:02;;;;;;;0.90;0.70;;;23.00;87.60;;;;;;5073051;28;20487;-84
2023/03/19 09:46:45;;;;;;;0.80;0.80;;;23.60;83.00;;;;;;5072518;28;20469;-83
2023/03/19 09:49:19;;;;;;;1.10;0.90;;;24.10;78.30;;;;;;5072908;28;20219;-84
2023/03/19 09:51:50;;;;;;;0.80;0.80;;;23.60;77.10;;;;;;5072642;28;20690;-83
2023/03/19 09:54:30;;;;;;;3.50;0.87;;;23.50;75.70;;;;;;5072857;28;20202;-84
2023/03/19 09:56:57;;;;;;;1.90;1.17;;;22.60;71.90;;;;;;5072609;28;20190;-84
2023/03/19 09:59:26;;;;;;;0.87;0.80;;;21.80;74.00;;;;;;5072883;28;20489;-84
2023/03/19 10:02:01;;;;;;;2.00;0.70;;;21.10;77.40;;;;;;5072837;28;20472;-84
2023/03/19 10:04:41;;;;;;;1.07;0.97;;;20.80;78.00;;;;;;5072704;28;20451;-84
2023/03/19 10:07:23;;;;;;;4.30;0.83;;;20.80;77.50;;;;;;5072997;28;20440;-84
2023/03/19 10:10:00;;;;;;;1.10;0.80;;;21.30;77.90;;;;;;5072377;28;20457;-83
2023/03/19 10:12:47;;;;;;;1.37;0.90;;;22.00;76.00;;;;;;5072522;28;20936;-84
2023/03/19 10:15:20;;;;;;;0.93;0.80;;;22.50;74.60;;;;;;5072309;28;20430;-83
2023/03/19 10:17:56;;;;;;;1.37;0.90;;;22.60;72.80;;;;;;5072882;28;20460;-83
2023/03/19 10:20:33;;;;;;;1.10;0.87;;;22.70;73.80;;;;;;5073623;28;20498;-83
2023/03/19 10:23:08;;;;;;;1.13;0.80;;;22.50;72.80;;;;;;5072837;28;20455;-83
2023/03/19 10:25:39;;;;;;;1.40;0.90;;;22.00;73.10;;;;;;5075457;28;21006;-83
2023/03/19 10:28:14;;;;;;;0.67;0.60;;;21.70;73.90;;;;;;5076603;28;20484;-83
2023/03/19 10:30:42;;;;;;;0.87;0.70;;;21.80;75.00;;;;;;5076140;28;20479;-83
2023/03/19 10:33:22;;;;;;;1.13;0.87;;;22.20;74.80;;;;;;5075639;28;20895;-83
2023/03/19 10:35:57;;;;;;;0.60;0.60;;;22.70;73.10;;;;;;5076633;28;20453;-83
2023/03/19 10:38:26;;;;;;;1.83;1.00;;;23.60;72.60;;;;;;5076063;28;20480;-84
2023/03/19 10:41:19;;;;;;;1.87;0.90;;;24.00;69.90;;;;;;5075775;28;20449;-83
2023/03/19 10:43:52;;;;;;;1.00;0.90;;;23.40;68.10;;;;;;5076259;28;20272;-83
2023/03/19 10:46:20;;;;;;;2.43;1.00;;;23.00;68.60;;;;;;5075423;28;20476;-83
2023/03/19 10:48:52;;;;;;;0.90;0.70;;;22.90;67.30;;;;;;5075512;28;20472;-83
2023/03/19 10:51:23;;;;;;;0.90;0.73;;;23.30;67.70;;;;;;5076390;28;20526;-83
2023/03/19 10:53:54;;;;;;;1.20;0.87;;;23.60;65.40;;;;;;5075781;28;20207;-83
2023/03/19 10:56:24;;;;;;;0.80;0.80;;;24.00;65.20;;;;;;5076288;28;20206;-84
2023/03/19 10:58:58;;;;;;;1.00;0.90;;;24.40;64.10;;;;;;5075077;28;20226;-83
2023/03/19 11:01:29;;;;;;;2.38;0.77;;;24.80;62.60;;;;;;5075142;28;20212;-84
2023/03/19 11:03:59;;;;;;;1.00;0.80;;;24.60;60.10;;;;;;5075306;28;20210;-84
2023/03/19 11:06:31;;;;;;;1.40;0.90;;;23.80;60.30;;;;;;5075863;28;20202;-84
2023/03/19 11:09:01;;;;;;;1.00;0.80;;;22.70;61.40;;;;;;5074932;28;20222;-84
2023/03/19 11:11:34;;;;;;;2.13;0.97;;;21.70;63.70;;;;;;5074957;28;20952;-86
2023/03/19 11:14:08;;;;;;;0.80;0.70;;;20.90;65.90;;;;;;5075075;28;20444;-81
2023/03/19 11:16:51;;;;;;;1.73;0.60;;;20.50;68.50;;;;;;5075043;28;20453;-80
2023/03/19 11:19:22;;;;;;;0.80;0.80;;;20.00;70.00;;;;;;5074681;28;20520;-84
2023/03/19 11:22:09;;;;;;;1.57;0.93;;;20.00;71.30;;;;;;5075289;28;20449;-84
2023/03/19 11:24:38;;;;;;;0.83;0.80;;;19.90;70.60;;;;;;5074935;28;20998;-84
2023/03/19 11:27:06;;;;;;;1.00;0.80;;;20.10;70.60;;;;;;5074961;28;20490;-84
2023/03/19 11:29:34;;;;;;;1.77;0.93;;;20.20;70.90;;;;;;5075695;28;20536;-84
2023/03/19 11:32:12;;;;;;;0.70;0.70;;;20.20;70.90;;;;;;5074701;28;20453;-84
2023/03/19 11:34:48;;;;;;;1.07;0.70;;;20.30;71.00;;;;;;5074159;28;20501;-84
2023/03/19 11:37:27;;;;;;;2.10;0.70;;;20.10;71.00;;;;;;5074833;28;20463;-84
2023/03/19 11:40:05;;;;;;;0.70;0.70;;;19.80;71.20;;;;;;5074399;28;21026;-84
2023/03/19 11:42:45;;;;;;;0.70;0.70;;;19.60;72.20;;;;;;5074673;28;20430;-84
2023/03/19 11:45:23;;;;;;;1.00;1.00;;;19.50;73.90;;;;;;5074721;28;20429;-85
2023/03/19 11:48:00;;;;;;;0.67;0.60;;;19.30;74.10;;;;;;5074135;28;20488;-85
2023/03/19 11:50:33;;;;;;;0.70;0.70;;;19.20;73.40;;;;;;5075284;28;20446;-84
2023/03/19 11:53:11;;;;;;;1.80;0.73;;;19.20;75.80;;;;;;5075502;28;20433;-85
2023/03/19 11:55:41;;;;;;;0.70;0.70;;;19.30;76.00;;;;;;5074557;28;20440;-85
2023/03/19 11:58:44;;;;;;;1.10;1.00;;;19.60;77.20;;;;;;5074351;28;20496;-85
2023/03/19 12:01:19;;;;;;;1.17;0.83;;;19.70;73.80;;;;;;5050435;28;20449;-84
2023/03/19 12:04:00;;;;;;;2.10;0.70;;;19.60;74.00;;;;;;5074313;28;20437;-85
2023/03/19 12:06:40;;;;;;;1.00;1.00;;;19.50;74.00;;;;;;5074326;28;20436;-85
2023/03/19 12:09:14;;;;;;;0.70;0.63;;;19.20;75.00;;;;;;5074127;28;20476;-84
2023/03/19 12:11:49;;;;;;;3.27;0.80;;;19.00;75.10;;;;;;5074278;28;20897;-85
2023/03/19 12:14:39;;;;;;;1.00;0.90;;;18.90;75.40;;;;;;5074288;28;20444;-87
2023/03/19 12:17:23;;;;;;;0.70;0.70;;;18.70;75.20;;;;;;5073884;28;20438;-88
2023/03/19 12:20:13;;;;;;;4.23;0.80;;;18.70;76.70;;;;;;5073982;28;20524;-84
2023/03/19 12:22:54;;;;;;;3.20;0.77;;;18.70;76.10;;;;;;5073920;28;20438;-84
2023/03/19 12:25:30;;;;;;;1.57;0.70;;;18.50;76.70;;;;;;5073924;28;20438;-85
2023/03/19 12:28:04;;;;;;;1.73;0.90;;;18.50;77.30;;;;;;5073529;28;20921;-84
2023/03/19 12:30:37;;;;;;;1.13;0.83;;;18.40;78.70;;;;;;5073716;28;20429;-85
2023/03/19 12:33:14;;;;;;;2.00;0.73;;;18.50;79.20;;;;;;5073647;28;20441;-84
2023/03/19 12:35:43;;;;;;;0.87;0.87;;;18.50;78.20;;;;;;5074788;28;20441;-85
2023/03/19 12:38:17;;;;;;;2.80;0.70;;;18.50;77.70;;;;;;5073633;28;20473;-83
2023/03/19 12:40:50;;;;;;;0.97;0.60;;;18.60;77.50;;;;;;5073701;28;20507;-85
2023/03/19 12:43:22;;;;;;;0.90;0.60;;;18.40;78.00;;;;;;5073655;28;20434;-85
2023/03/19 12:45:54;;;;;;;0.50;0.50;;;18.30;78.00;;;;;;5073028;28;20918;-84
2023/03/19 12:48:25;;;;;;;0.70;0.70;;;18.20;78.70;;;;;;5072677;28;20972;-84
2023/03/19 12:50:56;;;;;;;1.43;0.70;;;18.00;78.80;;;;;;5073596;28;20469;-85
2023/03/19 12:53:33;;;;;;;0.43;0.43;;;17.90;79.80;;;;;;5073614;28;20864;-84
2023/03/19 12:56:06;;;;;;;1.43;0.87;;;17.90;81.50;;;;;;5073271;28;20415;-85
2023/03/19 12:58:42;;;;;;;0.70;0.70;;;18.00;81.80;;;;;;5073371;28;20531;-85
2023/03/19 13:01:13;;;;;;;0.60;0.60;;;18.00;82.30;;;;;;5073455;28;20429;-84